Hillsdale, Indiana
Current Conditions -  °F | °C
As of 8:35 AM on Friday 28 Nov 2014 (Local Time) from KPRG Reporting Station
Scattered Clouds Scattered Clouds  
Wind Chill: 14°   Ceiling: Unl
Heat Index: 22°   Visibility: 10mi
Dew Point: 18°   Wind: 7mph
Humidity: 84%   Direction: 150°SSE
Pressure: 30.34"   Gusts: NA
Location:  39.79°N, 87.39°W
Report Text: KPRG 281335Z AUTO 15006KT 10SM SCT070 SCT120 M05/M08 A3034 RMK AO2 T10531076
Loading
Personal Weather Stations






























Interactive Weather Map New forecast layout! Learn more

10-Day Weather Forecast

Advertisements
Track Severe Weather on mobile